Neuburg — 5BQJ2 — position and weather

sailwx.info

Track history (hours):
 
Tides and Currents Weather Stations Pressure Air Temp Water Temp Dewpoint Dewpoint Depression Visibility Wind Speed Wind Dir Waves Ship Positions

Neuburg

Last reported at 2016-Sep-29 15:33 UTC. Time now 2016-Sep-30 01:31 UTC.
Position N 42°10' E 004°30'.

Length 142 m; draft 6.1 m.

Type: Cargo ship. MMSI: 212740000.

Date/timePositionNaut miles runAvg speedWind from/ knotsBaromVisibWave heightAir tempDewpointWater temp
2016-Sep-29 15:33N 42°10' E 004°30'2914.5
2016-Sep-29 13:32N 42°23' E 005°05'8215.0
2016-Sep-29 08:04N 43°01' E 006°44'11715.6
2016-Sep-29 00:33N 44°15' E 008°50'10 3.3
2016-Sep-28 21:32N 44°24' E 008°53'0 0.0
2016-Sep-28 19:32N 44°24' E 008°53'2 0.6
2016-Sep-28 16:33N 44°24' E 008°55'6 5.6
2016-Sep-28 15:33N 44°18' E 008°56'  
2016-Sep-26 08:33N 38°04' W 000°24'  
2016-Sep-24 00:33N 30°02' W 014°03'7915.3
2016-Sep-23 19:23N 29°10' W 015°12'2815.3
2016-Sep-23 17:33N 28°52' W 015°36'1515.3
2016-Sep-23 16:33N 28°43' W 015°50'1515.5
2016-Sep-23 15:33N 28°33' W 016°03'10 1.1
2016-Sep-23 06:28N 28°29' W 016°13'1 0.6
2016-Sep-23 04:32N 28°28' W 016°13'1111.8
2016-Sep-23 03:33N 28°24' W 016°01'1212.3
2016-Sep-23 02:33N 28°19' W 015°48'1212.5
2016-Sep-23 01:33N 28°15' W 015°35'1111.3
2016-Sep-23 00:33N 28°11' W 015°23'3 2.9
2016-Sep-22 23:24N 28°08' W 015°25'0 0.0
2016-Sep-22 20:27N 28°08' W 015°25'0 0.0
2016-Sep-22 12:29N 28°08' W 015°25'54 6.7
2016-Sep-22 04:33N 28°33' W 014°32'5814.4
2016-Sep-22 00:33N 28°58' W 013°32'9 1.1
2016-Sep-21 16:33N 28°53' W 013°40'10314.5
2016-Sep-21 09:27N 28°08' W 015°25'0 0.0
2016-Sep-21 08:27N 28°08' W 015°25'0 0.0
2016-Sep-21 05:33N 28°08' W 015°25'3 1.6
2016-Sep-21 03:33N 28°11' W 015°23'1313.1
2016-Sep-21 02:33N 28°14' W 015°38'29 3.2
2016-Sep-20 17:33N 28°40' W 015°53'  
Track history (hours):
 
Tides and Currents Weather Stations Pressure Air Temp Water Temp Dewpoint Dewpoint Depression Visibility Wind Speed Wind Dir Waves Ship Positions

Neuburg

Last reported at 2016-Sep-29 15:33 UTC. Time now 2016-Sep-30 01:31 UTC.
Position N 42°10' E 004°30'.

Length 142 m; draft 6.1 m.

Type: Cargo ship. MMSI: 212740000.

Date/timePositionNaut miles runAvg speedWind from/ knotsBaromVisibWave heightAir tempDewpointWater temp
2016-Sep-29 15:33N 42°10' E 004°30'2914.5
2016-Sep-29 13:32N 42°23' E 005°05'8215.0
2016-Sep-29 08:04N 43°01' E 006°44'11715.6
2016-Sep-29 00:33N 44°15' E 008°50'10 3.3
2016-Sep-28 21:32N 44°24' E 008°53'0 0.0
2016-Sep-28 19:32N 44°24' E 008°53'2 0.6
2016-Sep-28 16:33N 44°24' E 008°55'6 5.6
2016-Sep-28 15:33N 44°18' E 008°56'  
2016-Sep-26 08:33N 38°04' W 000°24'  
2016-Sep-24 00:33N 30°02' W 014°03'7915.3
2016-Sep-23 19:23N 29°10' W 015°12'2815.3
2016-Sep-23 17:33N 28°52' W 015°36'1515.3
2016-Sep-23 16:33N 28°43' W 015°50'1515.5
2016-Sep-23 15:33N 28°33' W 016°03'10 1.1
2016-Sep-23 06:28N 28°29' W 016°13'1 0.6
2016-Sep-23 04:32N 28°28' W 016°13'1111.8
2016-Sep-23 03:33N 28°24' W 016°01'1212.3
2016-Sep-23 02:33N 28°19' W 015°48'1212.5
2016-Sep-23 01:33N 28°15' W 015°35'1111.3
2016-Sep-23 00:33N 28°11' W 015°23'3 2.9
2016-Sep-22 23:24N 28°08' W 015°25'0 0.0
2016-Sep-22 20:27N 28°08' W 015°25'0 0.0
2016-Sep-22 12:29N 28°08' W 015°25'54 6.7
2016-Sep-22 04:33N 28°33' W 014°32'5814.4
2016-Sep-22 00:33N 28°58' W 013°32'9 1.1
2016-Sep-21 16:33N 28°53' W 013°40'10314.5
2016-Sep-21 09:27N 28°08' W 015°25'0 0.0
2016-Sep-21 08:27N 28°08' W 015°25'0 0.0
2016-Sep-21 05:33N 28°08' W 015°25'3 1.6
2016-Sep-21 03:33N 28°11' W 015°23'1313.1
2016-Sep-21 02:33N 28°14' W 015°38'29 3.2
2016-Sep-20 17:33N 28°40' W 015°53'  

Dump ship's entire track history